Time;durP1;ratioP1;P1;durP2;ratioP2;P2;SDS_P1;SDS_P2;PMS_P1;PMS_P2;Temp;Humidity;BMP_temperature;BMP_pressure;BME280_temperature;BME280_humidity;BME280_pressure;Samples;Min_cycle;Max_cycle;Signal;HPM_P1;HPM_P2
2024/02/17 00:00:58;;;;;;;;;;;;;;;24.03;31.77;102379.50;4133667;28;19932;-62
2024/02/17 00:03:00;;;;;;;;;;;;;;;24.05;31.88;102379.41;4133703;28;20060;-62
2024/02/17 00:05:02;;;;;;;;;;;;;;;24.05;31.63;102382.09;4116314;28;19931;-62
2024/02/17 00:07:04;;;;;;;;;;;;;;;24.05;31.91;102382.94;4133541;28;19926;-62
2024/02/17 00:09:06;;;;;;;;;;;;;;;24.05;32.07;102385.63;4133334;28;19929;-62
2024/02/17 00:11:13;;;;;;;;;;;;;;;24.04;31.76;102391.97;4116874;28;19927;-62
2024/02/17 00:13:14;;;;;;;;;;;;;;;24.05;31.61;102391.00;4133343;28;19949;-61
2024/02/17 00:15:16;;;;;;;;;;;;;;;24.06;31.96;102391.91;4133410;28;19984;-62
2024/02/17 00:17:17;;;;;;;;;;;;;;;24.06;32.06;102395.44;4133323;28;19981;-62
2024/02/17 00:19:19;;;;;;;;;;;;;;;24.04;31.76;102400.03;4133314;28;19925;-62
2024/02/17 00:21:21;;;;;;;;;;;;;;;24.05;31.77;102406.28;4133227;28;20033;-62
2024/02/17 00:23:27;;;;;;;;;;;;;;;24.04;31.69;102404.56;4132972;28;19926;-62
2024/02/17 00:25:29;;;;;;;;;;;;;;;24.02;31.97;102404.66;4133357;28;20371;-62
2024/02/17 00:27:30;;;;;;;;;;;;;;;24.03;31.75;102400.16;4133143;28;19932;-61
2024/02/17 00:29:33;;;;;;;;;;;;;;;24.03;31.76;102409.06;4133061;28;19926;-62
2024/02/17 00:31:35;;;;;;;;;;;;;;;24.04;31.77;102405.41;4133103;28;19972;-62
2024/02/17 00:33:37;;;;;;;;;;;;;;;24.06;31.77;102413.41;4132909;28;19926;-62
2024/02/17 00:35:43;;;;;;;;;;;;;;;24.05;31.88;102409.81;4133302;28;19930;-62
2024/02/17 00:37:45;;;;;;;;;;;;;;;24.06;31.88;102416.94;4132564;28;19926;-62
2024/02/17 00:39:46;;;;;;;;;;;;;;;24.07;31.93;102410.59;4133075;28;19925;-62
2024/02/17 00:41:48;;;;;;;;;;;;;;;24.08;31.76;102408.75;4132852;28;19926;-62
2024/02/17 00:43:50;;;;;;;;;;;;;;;24.08;31.76;102416.81;4133094;28;20377;-62
2024/02/17 00:45:52;;;;;;;;;;;;;;;24.07;32.06;102423.16;4133015;28;20012;-62
2024/02/17 00:47:53;;;;;;;;;;;;;;;24.07;31.77;102415.97;4133061;28;19926;-62
2024/02/17 00:49:55;;;;;;;;;;;;;;;24.07;31.88;102417.78;4132763;28;19929;-62
2024/02/17 00:51:57;;;;;;;;;;;;;;;24.07;31.91;102420.47;4132717;28;19926;-62
2024/02/17 00:53:59;;;;;;;;;;;;;;;24.05;31.64;102420.56;4132764;28;19996;-62
2024/02/17 00:56:00;;;;;;;;;;;;;;;24.05;31.65;102417.03;4132803;28;19953;-62
2024/02/17 00:58:07;;;;;;;;;;;;;;;24.04;31.77;102426.06;4132979;28;19976;-62
2024/02/17 01:00:14;;;;;;;;;;;;;;;24.03;31.76;102430.56;4132486;28;19925;-62
2024/02/17 01:02:15;;;;;;;;;;;;;;;24.03;31.74;102427.88;4115548;28;20556;-62
2024/02/17 01:04:17;;;;;;;;;;;;;;;24.05;31.76;102433.16;4132495;28;19949;-62
2024/02/17 01:06:19;;;;;;;;;;;;;;;24.06;32.05;102435.75;4132241;28;19926;-62
2024/02/17 01:08:21;;;;;;;;;;;;;;;24.06;31.88;102434.91;4131989;28;19926;-62
2024/02/17 01:10:22;;;;;;;;;;;;;;;24.07;32.04;102434.78;4132592;28;19930;-62
2024/02/17 01:12:29;;;;;;;;;;;;;;;24.07;32.01;102437.47;4132542;28;19965;-62
2024/02/17 01:14:31;;;;;;;;;;;;;;;24.07;31.95;102437.47;4132611;28;19933;-62
2024/02/17 01:16:32;;;;;;;;;;;;;;;24.09;32.04;102442.75;4132488;28;20020;-62
2024/02/17 01:18:34;;;;;;;;;;;;;;;24.08;31.85;102435.63;4132471;28;20017;-62
2024/02/17 01:20:35;;;;;;;;;;;;;;;24.09;32.04;102445.44;4132010;28;20350;-62
2024/02/17 01:22:42;;;;;;;;;;;;;;;24.07;31.70;102441.97;4132429;28;20471;-62
2024/02/17 01:24:48;;;;;;;;;;;;;;;24.07;31.74;102442.84;4132321;28;20020;-62
2024/02/17 01:26:50;;;;;;;;;;;;;;;24.06;31.82;102446.50;4132298;28;19926;-62
2024/02/17 01:28:51;;;;;;;;;;;;;;;24.06;31.74;102448.34;4132285;28;19929;-63
2024/02/17 01:30:53;;;;;;;;;;;;;;;24.06;31.92;102454.56;4132592;28;20004;-62
2024/02/17 01:32:54;;;;;;;;;;;;;;;24.06;31.53;102459.94;4131936;28;19926;-62
2024/02/17 01:35:00;;;;;;;;;;;;;;;24.06;32.01;102459.09;4132018;28;19932;-62
2024/02/17 01:37:07;;;;;;;;;;;;;;;24.09;31.63;102461.56;4132106;28;20434;-63
2024/02/17 01:39:13;;;;;;;;;;;;;;;24.10;31.61;102468.66;4131881;28;20311;-63
2024/02/17 01:41:15;;;;;;;;;;;;;;;24.10;31.87;102468.66;4132270;28;20323;-62
2024/02/17 01:43:17;;;;;;;;;;;;;;;24.08;31.86;102476.84;4132052;28;20414;-62
2024/02/17 01:45:19;;;;;;;;;;;;;;;24.11;31.56;102475.78;4132231;28;19926;-62
2024/02/17 01:47:25;;;;;;;;;;;;;;;24.11;31.90;102477.56;4132047;28;19964;-62
2024/02/17 01:49:27;;;;;;;;;;;;;;;24.10;31.88;102474.03;4131831;28;20421;-63
2024/02/17 01:51:29;;;;;;;;;;;;;;;24.09;31.87;102478.53;4131933;28;19926;-62
2024/02/17 01:53:31;;;;;;;;;;;;;;;24.09;31.56;102481.22;4132189;28;19930;-62
2024/02/17 01:55:32;;;;;;;;;;;;;;;24.11;31.64;102480.25;4131956;28;19936;-62
2024/02/17 01:57:34;;;;;;;;;;;;;;;24.08;31.76;102481.34;4131837;28;19926;-62
2024/02/17 01:59:41;;;;;;;;;;;;;;;24.07;31.61;102479.59;4115362;28;19933;-61
2024/02/17 02:01:48;;;;;;;;;;;;;;;24.06;31.61;102494.88;4132003;28;19947;-61
2024/02/17 02:03:50;;;;;;;;;;;;;;;24.06;31.51;102494.03;4131700;28;20029;-61
2024/02/17 02:05:52;;;;;;;;;;;;;;;24.06;31.77;102494.88;4131738;28;19930;-61
2024/02/17 02:07:53;;;;;;;;;;;;;;;24.06;31.74;102489.50;4131787;28;19926;-61
2024/02/17 02:09:55;;;;;;;;;;;;;;;24.07;31.82;102499.28;4131689;28;20008;-61
2024/02/17 02:12:02;;;;;;;;;;;;;;;24.08;31.73;102486.72;4131853;28;20398;-61
2024/02/17 02:14:15;;;;;;;;;;;;;;;24.10;31.71;102492.84;4131471;28;20260;-61
2024/02/17 02:16:17;;;;;;;;;;;;;;;24.11;31.48;102501.75;4131667;28;19961;-62
2024/02/17 02:18:21;;;;;;;;;;;;;;;24.10;31.58;102503.59;4114173;28;19930;-61
2024/02/17 02:20:25;;;;;;;;;;;;;;;24.10;31.88;102506.28;4131813;28;19952;-62
2024/02/17 02:22:27;;;;;;;;;;;;;;;24.09;31.36;102502.72;4131691;28;20008;-61
2024/02/17 02:24:29;;;;;;;;;;;;;;;24.09;31.68;102502.72;4114534;28;19930;-62
2024/02/17 02:26:31;;;;;;;;;;;;;;;24.09;31.58;102505.41;4131763;28;19996;-62
2024/02/17 02:28:33;;;;;;;;;;;;;;;24.11;31.56;102515.22;4131666;28;19965;-62
2024/02/17 02:30:34;;;;;;;;;;;;;;;24.09;31.39;102516.16;4131764;28;19981;-62
2024/02/17 02:32:36;;;;;;;;;;;;;;;24.09;31.54;102520.69;4131223;28;19948;-61
2024/02/17 02:34:37;;;;;;;;;;;;;;;24.09;31.62;102520.69;4131698;28;20280;-61
2024/02/17 02:36:41;;;;;;;;;;;;;;;24.08;31.74;102513.59;4131764;28;19926;-61
2024/02/17 02:38:44;;;;;;;;;;;;;;;24.11;31.48;102517.91;4131435;28;19974;-62
2024/02/17 02:40:46;;;;;;;;;;;;;;;24.11;31.48;102510.72;4131427;28;19932;-62
2024/02/17 02:42:48;;;;;;;;;;;;;;;24.11;31.74;102516.09;4131586;28;20014;-62
2024/02/17 02:44:49;;;;;;;;;;;;;;;24.14;31.44;102517.72;4131709;28;20410;-61
2024/02/17 02:46:51;;;;;;;;;;;;;;;24.14;31.79;102523.09;4131447;28;19932;-62
2024/02/17 02:48:53;;;;;;;;;;;;;;;24.14;31.70;102518.56;4113916;28;19926;-61
2024/02/17 02:50:55;;;;;;;;;;;;;;;24.13;31.55;102522.22;4131601;28;19930;-61
2024/02/17 02:52:56;;;;;;;;;;;;;;;24.13;31.69;102519.53;4131538;28;20016;-61
2024/02/17 02:54:58;;;;;;;;;;;;;;;24.14;31.63;102523.09;4131708;28;19926;-61
2024/02/17 02:56:59;;;;;;;;;;;;;;;24.13;31.43;102518.66;4131489;28;19925;-61
2024/02/17 02:59:01;;;;;;;;;;;;;;;24.13;31.61;102524.91;4131483;28;19929;-62
2024/02/17 03:01:02;;;;;;;;;;;;;;;24.12;31.42;102527.69;4131568;28;20299;-61
2024/02/17 03:03:04;;;;;;;;;;;;;;;24.11;31.76;102521.47;4131108;28;19948;-62
2024/02/17 03:05:06;;;;;;;;;;;;;;;24.13;31.69;102524.03;4131223;28;19937;-62
2024/02/17 03:07:08;;;;;;;;;;;;;;;24.12;31.75;102520.50;4131401;28;19926;-61
2024/02/17 03:09:10;;;;;;;;;;;;;;;24.13;31.67;102522.22;4131399;28;19934;-61
2024/02/17 03:11:15;;;;;;;;;;;;;;;24.13;31.69;102518.66;4114204;28;20432;-62
2024/02/17 03:13:17;;;;;;;;;;;;;;;24.14;31.40;102523.09;4114162;28;19930;-61
2024/02/17 03:15:18;;;;;;;;;;;;;;;24.15;31.79;102525.66;4131210;28;19926;-61
2024/02/17 03:17:20;;;;;;;;;;;;;;;24.16;31.50;102522.03;4131094;28;19973;-62
2024/02/17 03:19:22;;;;;;;;;;;;;;;24.16;31.79;102519.34;4131133;28;19936;-62
2024/02/17 03:21:24;;;;;;;;;;;;;;;24.16;31.31;102523.88;4131287;28;20393;-62
2024/02/17 03:23:26;;;;;;;;;;;;;;;24.15;31.54;102517.59;4131079;28;20446;-62
2024/02/17 03:25:27;;;;;;;;;;;;;;;24.16;31.70;102527.41;4131344;28;20012;-62
2024/02/17 03:27:29;;;;;;;;;;;;;;;24.15;31.54;102532.88;4134087;28;19929;-62
2024/02/17 03:29:31;;;;;;;;;;;;;;;24.14;31.70;102531.16;4134122;28;19957;-62
2024/02/17 03:31:36;;;;;;;;;;;;;;;24.13;31.53;102522.22;4133823;28;19929;-62
2024/02/17 03:33:38;;;;;;;;;;;;;;;24.14;31.38;102523.94;4133823;28;19926;-61
2024/02/17 03:35:41;;;;;;;;;;;;;;;24.14;31.23;102525.78;4134069;28;19926;-62
2024/02/17 03:37:43;;;;;;;;;;;;;;;24.13;31.41;102524.91;4116736;28;19926;-62
2024/02/17 03:39:45;;;;;;;;;;;;;;;24.14;31.73;102529.31;4134070;28;19984;-62
2024/02/17 03:41:47;;;;;;;;;;;;;;;24.15;31.53;102524.81;4133958;28;19926;-62
2024/02/17 03:43:49;;;;;;;;;;;;;;;24.16;31.56;102531.94;4134036;28;19925;-62
2024/02/17 03:45:51;;;;;;;;;;;;;;;24.17;31.42;102520.19;4133467;28;20417;-62
2024/02/17 03:47:52;;;;;;;;;;;;;;;24.17;31.34;102520.19;4133614;28;19972;-61
2024/02/17 03:49:54;;;;;;;;;;;;;;;24.18;31.76;102519.22;4133767;28;20296;-62
2024/02/17 03:51:56;;;;;;;;;;;;;;;24.19;31.64;102526.34;4133902;28;19934;-61
2024/02/17 03:53:58;;;;;;;;;;;;;;;24.18;31.50;102520.09;4133830;28;19964;-62
2024/02/17 03:56:00;;;;;;;;;;;;;;;24.18;31.40;102529.97;4133693;28;19932;-62
2024/02/17 03:58:01;;;;;;;;;;;;;;;24.18;31.40;102529.97;4133792;28;20375;-62
2024/02/17 04:00:03;;;;;;;;;;;;;;;24.17;31.39;102526.44;4133402;28;20013;-64
2024/02/17 04:02:05;;;;;;;;;;;;;;;24.17;31.25;102526.44;4133517;28;19926;-62
2024/02/17 04:04:07;;;;;;;;;;;;;;;24.17;31.72;102525.56;4133615;28;19926;-62
2024/02/17 04:06:09;;;;;;;;;;;;;;;24.16;31.52;102530.09;4116353;28;20395;-61
2024/02/17 04:08:11;;;;;;;;;;;;;;;24.16;31.66;102540.84;4133600;28;19926;-61
2024/02/17 04:10:15;;;;;;;;;;;;;;;24.14;31.31;102537.38;4133405;28;19926;-60
2024/02/17 04:12:17;;;;;;;;;;;;;;;24.15;31.42;102547.16;4116261;28;19926;-62
2024/02/17 04:14:19;;;;;;;;;;;;;;;24.16;31.59;102548.06;4133221;28;20009;-62
2024/02/17 04:16:20;;;;;;;;;;;;;;;24.17;31.66;102547.94;4133583;28;19926;-62
2024/02/17 04:18:22;;;;;;;;;;;;;;;24.18;31.54;102546.09;4133294;28;19933;-61
2024/02/17 04:20:26;;;;;;;;;;;;;;;24.19;31.69;102540.66;4133544;28;19930;-62
2024/02/17 04:22:28;;;;;;;;;;;;;;;24.20;31.32;102539.66;4133221;28;19926;-61
2024/02/17 04:24:29;;;;;;;;;;;;;;;24.19;31.39;102537.97;4133390;28;19925;-61
2024/02/17 04:26:31;;;;;;;;;;;;;;;24.19;31.50;102539.78;4133409;28;19980;-61
2024/02/17 04:28:36;;;;;;;;;;;;;;;24.19;31.53;102550.53;4132879;28;20285;-61
2024/02/17 04:30:37;;;;;;;;;;;;;;;24.18;31.38;102555.06;4133291;28;20013;-60
2024/02/17 04:32:39;;;;;;;;;;;;;;;24.18;31.69;102554.19;4109996;28;19926;-61
2024/02/17 04:34:41;;;;;;;;;;;;;;;24.18;31.47;102560.44;4116870;28;19962;-61
2024/02/17 04:36:42;;;;;;;;;;;;;;;24.18;31.72;102573.88;4117082;28;19926;-61
2024/02/17 04:38:44;;;;;;;;;;;;;;;24.18;31.42;102576.56;4116204;28;19930;-61
2024/02/17 04:40:46;;;;;;;;;;;;;;;24.16;31.73;102573.09;4099583;29;19942;-62
2024/02/17 04:42:47;;;;;;;;;;;;;;;24.17;31.33;102573.94;4116813;28;20353;-61
2024/02/17 04:44:49;;;;;;;;;;;;;;;24.17;31.71;102571.25;4116472;28;20007;-61
2024/02/17 04:46:51;;;;;;;;;;;;;;;24.18;31.63;102581.94;4117032;28;19949;-62
2024/02/17 04:48:52;;;;;;;;;;;;;;;24.19;31.39;102585.47;4116742;28;19945;-61
2024/02/17 04:50:56;;;;;;;;;;;;;;;24.20;31.45;102585.38;4116006;28;21827;-62
2024/02/17 04:52:58;;;;;;;;;;;;;;;24.20;31.60;102589.91;4116756;28;19926;-62
2024/02/17 04:54:59;;;;;;;;;;;;;;;24.20;31.66;102590.75;4116710;28;19933;-62
2024/02/17 04:57:01;;;;;;;;;;;;;;;24.20;31.62;102593.44;4116857;28;20273;-61
2024/02/17 04:59:03;;;;;;;;;;;;;;;24.22;31.35;102596.06;4116238;28;19926;-62
2024/02/17 05:01:05;;;;;;;;;;;;;;;24.22;31.51;102601.44;4116756;28;19996;-62
2024/02/17 05:03:07;;;;;;;;;;;;;;;24.21;31.38;102602.38;4116646;28;19973;-62
2024/02/17 05:05:09;;;;;;;;;;;;;;;24.20;31.30;102604.19;4116653;28;20303;-64
2024/02/17 05:07:12;;;;;;;;;;;;;;;24.21;31.34;102607.75;4116715;28;20483;-61
2024/02/17 05:09:13;;;;;;;;;;;;;;;24.20;31.36;102606.03;4116350;28;20033;-61
2024/02/17 05:11:18;;;;;;;;;;;;;;;24.19;31.54;102610.56;4116598;28;20368;-61
2024/02/17 05:13:20;;;;;;;;;;;;;;;24.19;31.64;102618.63;4116223;28;19965;-61
2024/02/17 05:15:21;;;;;;;;;;;;;;;24.19;31.52;102610.56;4116299;28;20327;-61
2024/02/17 05:17:23;;;;;;;;;;;;;;;24.20;31.48;102614.09;4116469;28;19926;-61
2024/02/17 05:19:25;;;;;;;;;;;;;;;24.21;31.62;102623.88;4116347;28;20028;-61
2024/02/17 05:21:28;;;;;;;;;;;;;;;24.22;31.63;102623.78;4116263;28;20399;-62
2024/02/17 05:23:29;;;;;;;;;;;;;;;24.23;31.57;102616.59;4116394;28;20013;-61
2024/02/17 05:25:31;;;;;;;;;;;;;;;24.22;31.21;102626.47;4116383;28;19926;-61
2024/02/17 05:27:32;;;;;;;;;;;;;;;24.23;31.69;102622.84;4115907;28;19965;-62
2024/02/17 05:29:34;;;;;;;;;;;;;;;24.22;31.47;102626.47;4116276;28;19926;-61
2024/02/17 05:31:36;;;;;;;;;;;;;;;24.23;31.29;102632.72;4116130;28;19930;-60
2024/02/17 05:33:37;;;;;;;;;;;;;;;24.22;31.45;102639.06;4129542;28;20306;-61
2024/02/17 05:35:39;;;;;;;;;;;;;;;24.23;31.46;102635.41;4132093;28;19933;-61
2024/02/17 05:37:40;;;;;;;;;;;;;;;24.21;31.51;102634.66;4132113;28;19926;-61
2024/02/17 05:39:42;;;;;;;;;;;;;;;24.21;31.40;102634.66;4132143;28;20009;-61
2024/02/17 05:41:43;;;;;;;;;;;;;;;24.20;31.45;102636.44;4131908;28;19926;-61
2024/02/17 05:43:45;;;;;;;;;;;;;;;24.20;31.65;102639.16;4132204;28;19930;-61
2024/02/17 05:45:47;;;;;;;;;;;;;;;24.20;31.36;102639.16;4132050;28;20421;-61
2024/02/17 05:47:49;;;;;;;;;;;;;;;24.21;31.50;102640.88;4132127;28;19932;-61
2024/02/17 05:49:51;;;;;;;;;;;;;;;24.22;31.63;102642.59;4130928;28;19926;-61
2024/02/17 05:51:54;;;;;;;;;;;;;;;24.23;31.62;102643.50;4132087;28;19953;-62
2024/02/17 05:53:56;;;;;;;;;;;;;;;24.24;31.63;102637.13;4131932;28;20517;-61
2024/02/17 05:55:57;;;;;;;;;;;;;;;24.23;31.40;102630.91;4131599;28;20291;-61
2024/02/17 05:57:59;;;;;;;;;;;;;;;24.26;31.49;102642.44;4131834;28;19926;-61
2024/02/17 06:00:00;;;;;;;;;;;;;;;24.25;31.57;102644.22;4132033;28;19935;-62
2024/02/17 06:02:03;;;;;;;;;;;;;;;24.25;31.51;102646.94;4131966;28;19968;-62
2024/02/17 06:04:04;;;;;;;;;;;;;;;24.24;31.59;102648.75;4132033;28;19925;-63
2024/02/17 06:06:06;;;;;;;;;;;;;;;24.24;31.40;102650.56;4114558;28;19948;-61
2024/02/17 06:08:08;;;;;;;;;;;;;;;24.24;31.33;102651.44;4131781;28;19932;-61
2024/02/17 06:10:12;;;;;;;;;;;;;;;24.23;31.63;102663.16;4131556;28;19980;-61
2024/02/17 06:12:13;;;;;;;;;;;;;;;24.23;31.33;102662.31;4131900;28;20020;-61
2024/02/17 06:14:15;;;;;;;;;;;;;;;24.22;31.50;102664.13;4131869;28;20369;-62
2024/02/17 06:16:18;;;;;;;;;;;;;;;24.23;31.38;102670.38;4131855;28;20021;-62
2024/02/17 06:23:08;;;;;;;;;;;;;;;24.24;31.28;102685.53;4066252;29;19931;-62
2024/02/17 06:25:12;;;;;;;;;;;;;;;24.26;31.56;102691.69;4065844;29;19934;-60
2024/02/17 06:27:14;;;;;;;;;;;;;;;24.27;31.67;102701.47;4066142;29;19934;-60
2024/02/17 06:29:16;;;;;;;;;;;;;;;24.27;31.43;102709.53;4066162;29;19962;-61
2024/02/17 06:31:18;;;;;;;;;;;;;;;24.28;31.21;102713.09;4066155;29;19931;-60
2024/02/17 06:33:20;;;;;;;;;;;;;;;24.28;31.66;102713.97;4066208;29;19939;-61
2024/02/17 06:35:22;;;;;;;;;;;;;;;24.28;31.69;102726.53;4066153;29;20026;-61
2024/02/17 06:37:23;;;;;;;;;;;;;;;24.26;31.37;102723.09;4066106;29;20031;-63
2024/02/17 06:39:25;;;;;;;;;;;;;;;24.25;31.28;102730.28;4065968;29;20122;-60
2024/02/17 06:41:26;;;;;;;;;;;;;;;24.24;31.46;102734.81;4066299;29;19927;-60
2024/02/17 06:43:29;;;;;;;;;;;;;;;24.26;31.33;102740.06;4065551;29;20504;-61
2024/02/17 06:45:31;;;;;;;;;;;;;;;24.24;31.47;102739.28;4066089;29;20017;-61
2024/02/17 06:47:32;;;;;;;;;;;;;;;24.23;31.22;102743.81;4066279;29;19927;-61
2024/02/17 06:49:36;;;;;;;;;;;;;;;24.25;31.34;102743.72;4066127;29;19931;-61
2024/02/17 06:51:37;;;;;;;;;;;;;;;24.26;31.31;102753.53;4066012;29;19931;-60
2024/02/17 06:53:39;;;;;;;;;;;;;;;24.27;31.39;102744.50;4065657;29;19935;-61
2024/02/17 06:55:40;;;;;;;;;;;;;;;24.28;31.31;102754.28;4066108;29;19927;-60
2024/02/17 06:57:42;;;;;;;;;;;;;;;24.29;31.68;102760.53;4091345;28;19926;-61
2024/02/17 06:59:44;;;;;;;;;;;;;;;24.29;31.33;102765.91;4131177;28;19932;-61
2024/02/17 07:01:45;;;;;;;;;;;;;;;24.31;31.30;102774.75;4133375;28;20020;-60
2024/02/17 07:03:47;;;;;;;;;;;;;;;24.31;31.32;102777.44;4134683;28;20029;-61
2024/02/17 07:05:49;;;;;;;;;;;;;;;24.30;31.66;102773.03;4134673;28;19926;-61
2024/02/17 07:07:50;;;;;;;;;;;;;;;24.28;31.55;102778.50;4134087;28;19933;-61
2024/02/17 07:09:52;;;;;;;;;;;;;;;24.27;31.66;102776.75;4134053;28;19961;-61
2024/02/17 07:11:53;;;;;;;;;;;;;;;24.28;31.58;102777.63;4134418;28;19956;-61
2024/02/17 07:13:55;;;;;;;;;;;;;;;24.28;31.48;102777.63;4134371;28;19926;-61
2024/02/17 07:15:56;;;;;;;;;;;;;;;24.27;31.66;102775.91;4134234;28;19973;-61
2024/02/17 07:18:01;;;;;;;;;;;;;;;24.26;31.46;102777.72;4134173;28;19933;-64
2024/02/17 07:20:04;;;;;;;;;;;;;;;24.27;31.29;102781.28;4134401;28;19957;-61
2024/02/17 07:22:08;;;;;;;;;;;;;;;24.28;31.57;102783.00;4134010;28;19926;-61
2024/02/17 07:24:09;;;;;;;;;;;;;;;24.28;31.72;102783.00;4133868;28;19926;-63
2024/02/17 07:26:11;;;;;;;;;;;;;;;24.29;31.50;102787.41;4134212;28;19933;-60
2024/02/17 07:28:13;;;;;;;;;;;;;;;24.30;31.53;102791.84;4134222;28;20000;-61
2024/02/17 07:30:15;;;;;;;;;;;;;;;24.30;31.61;102787.31;4133974;28;19926;-62
2024/02/17 07:32:18;;;;;;;;;;;;;;;24.31;31.68;102788.19;4134008;28;19925;-61
2024/02/17 07:34:20;;;;;;;;;;;;;;;24.31;31.25;102790.88;4134111;28;20350;-62
2024/02/17 07:36:25;;;;;;;;;;;;;;;24.32;31.66;102795.31;4133955;28;20298;-62
2024/02/17 07:38:27;;;;;;;;;;;;;;;24.30;31.67;102800.75;4133603;28;20369;-62
2024/02/17 07:40:29;;;;;;;;;;;;;;;24.31;31.55;102805.19;4133832;28;19933;-61
2024/02/17 07:42:30;;;;;;;;;;;;;;;24.31;31.41;102805.19;4133910;28;20299;-62
2024/02/17 07:44:32;;;;;;;;;;;;;;;24.31;31.31;102807.88;4133868;28;20350;-62
2024/02/17 07:46:35;;;;;;;;;;;;;;;24.31;31.66;102804.34;4133978;28;19932;-62
2024/02/17 07:48:37;;;;;;;;;;;;;;;24.29;31.67;102807.13;4133446;28;19926;-61
2024/02/17 07:50:39;;;;;;;;;;;;;;;24.30;31.55;102807.97;4133735;28;19925;-62
2024/02/17 07:52:40;;;;;;;;;;;;;;;24.28;31.49;102805.38;4133474;28;19988;-62
2024/02/17 07:54:42;;;;;;;;;;;;;;;24.29;31.33;102804.44;4133558;28;19937;-62
2024/02/17 07:56:43;;;;;;;;;;;;;;;24.31;31.28;102810.56;4133746;28;19930;-62
2024/02/17 07:58:45;;;;;;;;;;;;;;;24.32;31.68;102809.59;4133462;28;20021;-62
2024/02/17 08:00:47;;;;;;;;;;;;;;;24.34;31.41;102810.38;4133454;28;19930;-62
2024/02/17 08:02:51;;;;;;;;;;;;;;;24.33;31.54;102808.66;4133431;28;19930;-61
2024/02/17 08:04:54;;;;;;;;;;;;;;;24.34;31.40;102806.81;4133521;28;19929;-62
2024/02/17 08:06:56;;;;;;;;;;;;;;;24.34;31.36;102810.38;4132812;28;19926;-62
2024/02/17 08:08:57;;;;;;;;;;;;;;;24.33;31.35;102819.41;4133475;28;19995;-62
2024/02/17 08:10:59;;;;;;;;;;;;;;;24.33;31.37;102829.31;4133443;28;20402;-62
2024/02/17 08:13:00;;;;;;;;;;;;;;;24.34;31.41;102836.41;4132401;28;20021;-62
2024/02/17 08:15:03;;;;;;;;;;;;;;;24.35;31.40;102830.06;4133467;28;20025;-62
2024/02/17 08:17:04;;;;;;;;;;;;;;;24.34;31.39;102837.28;4133288;28;19948;-62
2024/02/17 08:19:07;;;;;;;;;;;;;;;24.33;31.42;102832.84;4133191;28;20008;-62
2024/02/17 08:21:09;;;;;;;;;;;;;;;24.33;31.46;102838.25;4133046;28;19969;-62
2024/02/17 08:23:10;;;;;;;;;;;;;;;24.34;31.49;102837.28;4133325;28;19996;-62
2024/02/17 08:25:12;;;;;;;;;;;;;;;24.34;31.48;102845.34;4133341;28;20036;-62
2024/02/17 08:27:13;;;;;;;;;;;;;;;24.35;31.34;102847.09;4133274;28;19953;-62
2024/02/17 08:29:15;;;;;;;;;;;;;;;24.37;31.45;102855.06;4115677;28;20366;-61
2024/02/17 08:31:16;;;;;;;;;;;;;;;24.37;31.72;102849.69;4133211;28;19926;-62
2024/02/17 08:33:18;;;;;;;;;;;;;;;24.38;31.51;102867.53;4132839;28;19930;-62
2024/02/17 08:35:20;;;;;;;;;;;;;;;24.39;31.49;102864.75;4132755;28;19964;-61
2024/02/17 08:37:22;;;;;;;;;;;;;;;24.39;31.59;102864.75;4133257;28;20335;-62
2024/02/17 08:39:29;;;;;;;;;;;;;;;24.40;31.56;102871.88;4132649;28;19932;-62
2024/02/17 08:41:30;;;;;;;;;;;;;;;24.40;31.65;102876.41;4133047;28;20383;-61
2024/02/17 08:43:32;;;;;;;;;;;;;;;24.40;31.38;102879.94;4132897;28;19926;-62
2024/02/17 08:45:34;;;;;;;;;;;;;;;24.39;31.35;102880.91;4133059;28;19981;-62
2024/02/17 08:47:36;;;;;;;;;;;;;;;24.39;31.32;102886.28;4132866;28;20009;-62
2024/02/17 08:49:38;;;;;;;;;;;;;;;24.40;31.35;102882.63;4132407;28;20024;-62
2024/02/17 08:51:40;;;;;;;;;;;;;;;24.39;31.61;102885.41;4132693;28;19972;-61
2024/02/17 08:53:41;;;;;;;;;;;;;;;24.38;31.40;102884.53;4132737;28;19932;-61
2024/02/17 08:55:43;;;;;;;;;;;;;;;24.39;31.29;102897.03;4132871;28;19969;-61
2024/02/17 08:57:44;;;;;;;;;;;;;;;24.39;31.44;102890.81;4132573;28;20295;-62
2024/02/17 08:59:48;;;;;;;;;;;;;;;24.40;31.37;102889.84;4132766;28;19930;-62
2024/02/17 09:01:49;;;;;;;;;;;;;;;24.41;31.17;102899.63;4132481;28;19933;-62
2024/02/17 09:03:51;;;;;;;;;;;;;;;24.43;31.50;102903.09;4132713;28;19932;-62
2024/02/17 09:05:52;;;;;;;;;;;;;;;24.44;31.37;102894.06;4132084;28;20287;-62
2024/02/17 09:07:54;;;;;;;;;;;;;;;24.45;31.60;102898.50;4132549;28;19934;-62
2024/02/17 09:09:55;;;;;;;;;;;;;;;24.46;31.33;102889.47;4132360;28;19933;-62
2024/02/17 09:11:57;;;;;;;;;;;;;;;24.45;31.44;102895.81;4132451;28;20316;-62
2024/02/17 09:13:58;;;;;;;;;;;;;;;24.45;31.32;102906.56;4132047;28;19972;-62
2024/02/17 09:16:00;;;;;;;;;;;;;;;24.45;31.54;102898.50;4132281;28;20297;-61
2024/02/17 09:18:02;;;;;;;;;;;;;;;24.44;31.48;102891.38;4132231;28;19930;-62
2024/02/17 09:20:04;;;;;;;;;;;;;;;24.45;31.62;102897.63;4131859;28;19926;-61
2024/02/17 09:22:06;;;;;;;;;;;;;;;24.45;31.55;102890.44;4132022;28;20046;-60
2024/02/17 09:24:08;;;;;;;;;;;;;;;24.46;31.57;102893.97;4132269;28;20383;-60
2024/02/17 09:26:09;;;;;;;;;;;;;;;24.45;31.23;102890.44;4132165;28;20430;-60
2024/02/17 09:28:11;;;;;;;;;;;;;;;24.47;31.50;102898.41;4132178;28;19925;-59
2024/02/17 09:30:13;;;;;;;;;;;;;;;24.47;31.33;102891.19;4131959;28;19933;-65
2024/02/17 09:32:15;;;;;;;;;;;;;;;24.49;31.40;102891.09;4131783;28;20347;-63
2024/02/17 09:34:16;;;;;;;;;;;;;;;24.48;31.40;102897.44;4122960;28;20322;-63
2024/02/17 09:36:25;;;;;;;;;;;;;;;24.50;31.88;102899.06;4114949;28;20397;-63
2024/02/17 09:38:27;;;;;;;;;;;;;;;24.51;32.78;102900.81;4119219;28;20026;-62
2024/02/17 09:40:28;;;;;;;;;;;;;;;24.50;32.13;102904.47;4116019;28;19938;-66
2024/02/17 09:42:30;;;;;;;;;;;;;;;24.51;32.09;102908.88;4116238;28;20021;-65
2024/02/17 09:44:32;;;;;;;;;;;;;;;24.54;32.18;102897.06;4107353;28;19926;-66
2024/02/17 09:46:35;;;;;;;;;;;;;;;24.58;32.48;102889.69;4112895;28;20020;-64
2024/02/17 09:48:37;;;;;;;;;;;;;;;24.59;32.69;102902.19;4114131;28;20494;-74
2024/02/17 09:50:39;;;;;;;;;;;;;;;24.60;32.82;102904.75;4112613;28;20403;-65
2024/02/17 09:52:41;;;;;;;;;;;;;;;24.61;33.12;102905.66;4112050;28;19926;-75
2024/02/17 09:54:43;;;;;;;;;;;;;;;24.63;33.29;102903.72;4112528;28;19949;-71
2024/02/17 09:56:44;;;;;;;;;;;;;;;24.63;33.23;102903.72;4124862;28;19926;-62
2024/02/17 09:58:46;;;;;;;;;;;;;;;24.61;33.14;102897.56;4127588;28;20065;-64
2024/02/17 10:00:52;;;;;;;;;;;;;;;24.60;32.45;102911.97;4115013;28;20440;-65
2024/02/17 10:02:54;;;;;;;;;;;;;;;24.58;32.70;102911.19;4109316;28;19933;-61
2024/02/17 10:04:57;;;;;;;;;;;;;;;24.59;32.89;102913.78;4112823;28;19969;-58
2024/02/17 10:06:59;;;;;;;;;;;;;;;24.60;32.96;102906.59;4103479;28;20362;-65
2024/02/17 10:09:04;;;;;;;;;;;;;;;24.60;32.93;102909.28;4111737;28;19926;-61
2024/02/17 10:11:10;;;;;;;;;;;;;;;24.60;32.29;102911.97;4114339;28;19926;-62
2024/02/17 10:13:16;;;;;;;;;;;;;;;24.61;32.04;102905.66;4118091;28;19940;-62
2024/02/17 10:15:19;;;;;;;;;;;;;;;24.60;31.82;102917.38;4113896;28;19926;-61
2024/02/17 10:17:21;;;;;;;;;;;;;;;24.59;31.52;102912.94;4112648;28;19988;-67
2024/02/17 10:19:23;;;;;;;;;;;;;;;24.62;31.49;102919.00;4114436;28;19933;-68
2024/02/17 10:21:25;;;;;;;;;;;;;;;24.62;31.37;102918.13;4111204;28;20292;-62
2024/02/17 10:23:26;;;;;;;;;;;;;;;24.62;31.39;102926.19;4113541;28;19926;-64
2024/02/17 10:25:28;;;;;;;;;;;;;;;24.63;31.32;102923.44;4113310;28;19926;-64
2024/02/17 10:27:30;;;;;;;;;;;;;;;24.67;31.15;102927.69;4105547;28;19979;-62
2024/02/17 10:29:32;;;;;;;;;;;;;;;24.67;30.95;102927.69;4112710;28;19993;-62
2024/02/17 10:31:33;;;;;;;;;;;;;;;24.69;30.44;102930.28;4098654;28;19927;-60